sensor_id;sensor_type;location;lat;lon;timestamp;P1;durP1;ratioP1;P2;durP2;ratioP2
54679;SDS011;40578;53.178;5.846;2022-08-23T00:03:45;13.30;;;8.73;;
54679;SDS011;40578;53.178;5.846;2022-08-23T00:06:12;13.13;;;8.00;;
54679;SDS011;40578;53.178;5.846;2022-08-23T00:08:38;16.02;;;8.82;;
54679;SDS011;40578;53.178;5.846;2022-08-23T00:11:05;11.13;;;8.45;;
54679;SDS011;40578;53.178;5.846;2022-08-23T00:13:47;10.38;;;7.85;;
54679;SDS011;40578;53.178;5.846;2022-08-23T00:16:12;13.37;;;7.90;;
54679;SDS011;40578;53.178;5.846;2022-08-23T00:18:39;11.60;;;8.53;;
54679;SDS011;40578;53.178;5.846;2022-08-23T00:21:06;15.10;;;7.85;;
54679;SDS011;40578;53.178;5.846;2022-08-23T00:23:32;11.38;;;8.10;;
54679;SDS011;40578;53.178;5.846;2022-08-23T00:26:00;14.80;;;8.20;;
54679;SDS011;40578;53.178;5.846;2022-08-23T00:28:27;13.02;;;8.65;;
54679;SDS011;40578;53.178;5.846;2022-08-23T00:30:54;15.20;;;8.63;;
54679;SDS011;40578;53.178;5.846;2022-08-23T00:33:20;16.88;;;9.55;;
54679;SDS011;40578;53.178;5.846;2022-08-23T00:35:46;14.07;;;9.47;;
54679;SDS011;40578;53.178;5.846;2022-08-23T00:38:11;16.00;;;9.13;;
54679;SDS011;40578;53.178;5.846;2022-08-23T00:40:37;13.97;;;9.80;;
54679;SDS011;40578;53.178;5.846;2022-08-23T00:43:07;20.53;;;9.80;;
54679;SDS011;40578;53.178;5.846;2022-08-23T00:45:59;14.75;;;9.50;;
54679;SDS011;40578;53.178;5.846;2022-08-23T00:48:46;14.75;;;10.27;;
54679;SDS011;40578;53.178;5.846;2022-08-23T00:53:42;16.92;;;10.63;;
54679;SDS011;40578;53.178;5.846;2022-08-23T00:56:11;17.70;;;10.73;;
54679;SDS011;40578;53.178;5.846;2022-08-23T00:58:39;20.73;;;11.80;;
54679;SDS011;40578;53.178;5.846;2022-08-23T01:01:06;18.17;;;11.25;;
54679;SDS011;40578;53.178;5.846;2022-08-23T01:03:33;15.65;;;11.40;;
54679;SDS011;40578;53.178;5.846;2022-08-23T01:06:12;14.88;;;11.93;;
54679;SDS011;40578;53.178;5.846;2022-08-23T01:11:10;23.77;;;12.50;;
54679;SDS011;40578;53.178;5.846;2022-08-23T01:14:11;15.80;;;12.80;;
54679;SDS011;40578;53.178;5.846;2022-08-23T01:17:00;19.98;;;13.57;;
54679;SDS011;40578;53.178;5.846;2022-08-23T01:19:40;15.98;;;12.85;;
54679;SDS011;40578;53.178;5.846;2022-08-23T01:22:26;19.45;;;13.68;;
54679;SDS011;40578;53.178;5.846;2022-08-23T01:25:07;18.50;;;13.60;;
54679;SDS011;40578;53.178;5.846;2022-08-23T01:27:36;19.42;;;13.60;;
54679;SDS011;40578;53.178;5.846;2022-08-23T01:30:03;17.83;;;13.77;;
54679;SDS011;40578;53.178;5.846;2022-08-23T01:32:32;19.45;;;14.40;;
54679;SDS011;40578;53.178;5.846;2022-08-23T01:35:02;20.15;;;14.32;;
54679;SDS011;40578;53.178;5.846;2022-08-23T01:37:28;21.10;;;15.05;;
54679;SDS011;40578;53.178;5.846;2022-08-23T01:39:54;21.37;;;14.27;;
54679;SDS011;40578;53.178;5.846;2022-08-23T01:42:20;20.40;;;15.17;;
54679;SDS011;40578;53.178;5.846;2022-08-23T01:44:45;18.53;;;14.27;;
54679;SDS011;40578;53.178;5.846;2022-08-23T01:47:11;20.50;;;14.73;;
54679;SDS011;40578;53.178;5.846;2022-08-23T01:49:37;19.10;;;14.13;;
54679;SDS011;40578;53.178;5.846;2022-08-23T01:52:02;19.13;;;14.13;;
54679;SDS011;40578;53.178;5.846;2022-08-23T01:54:28;19.20;;;13.67;;
54679;SDS011;40578;53.178;5.846;2022-08-23T01:56:54;19.37;;;14.03;;
54679;SDS011;40578;53.178;5.846;2022-08-23T01:59:23;16.95;;;13.85;;
54679;SDS011;40578;53.178;5.846;2022-08-23T02:01:49;21.30;;;14.73;;
54679;SDS011;40578;53.178;5.846;2022-08-23T02:04:17;17.02;;;13.40;;
54679;SDS011;40578;53.178;5.846;2022-08-23T02:06:44;16.98;;;13.43;;
54679;SDS011;40578;53.178;5.846;2022-08-23T02:09:10;24.77;;;14.45;;
54679;SDS011;40578;53.178;5.846;2022-08-23T02:11:37;22.03;;;14.87;;
54679;SDS011;40578;53.178;5.846;2022-08-23T02:14:07;20.85;;;14.88;;
54679;SDS011;40578;53.178;5.846;2022-08-23T02:16:36;21.52;;;15.18;;
54679;SDS011;40578;53.178;5.846;2022-08-23T02:19:05;16.98;;;14.20;;
54679;SDS011;40578;53.178;5.846;2022-08-23T02:21:34;21.80;;;14.55;;
54679;SDS011;40578;53.178;5.846;2022-08-23T02:24:11;18.40;;;14.68;;
54679;SDS011;40578;53.178;5.846;2022-08-23T02:26:41;20.80;;;14.38;;
54679;SDS011;40578;53.178;5.846;2022-08-23T02:29:10;18.98;;;14.23;;
54679;SDS011;40578;53.178;5.846;2022-08-23T02:31:36;16.17;;;13.13;;
54679;SDS011;40578;53.178;5.846;2022-08-23T02:34:02;17.50;;;13.77;;
54679;SDS011;40578;53.178;5.846;2022-08-23T02:36:30;17.60;;;13.68;;
54679;SDS011;40578;53.178;5.846;2022-08-23T02:38:56;18.50;;;13.80;;
54679;SDS011;40578;53.178;5.846;2022-08-23T02:41:22;15.52;;;13.73;;
54679;SDS011;40578;53.178;5.846;2022-08-23T02:43:52;16.48;;;12.48;;
54679;SDS011;40578;53.178;5.846;2022-08-23T02:46:19;18.20;;;14.75;;
54679;SDS011;40578;53.178;5.846;2022-08-23T02:48:45;17.70;;;13.77;;
54679;SDS011;40578;53.178;5.846;2022-08-23T02:51:11;18.03;;;13.67;;
54679;SDS011;40578;53.178;5.846;2022-08-23T02:53:36;18.43;;;13.03;;
54679;SDS011;40578;53.178;5.846;2022-08-23T02:56:02;18.63;;;13.82;;
54679;SDS011;40578;53.178;5.846;2022-08-23T02:58:28;18.45;;;14.73;;
54679;SDS011;40578;53.178;5.846;2022-08-23T03:00:54;18.83;;;14.30;;
54679;SDS011;40578;53.178;5.846;2022-08-23T03:03:21;18.95;;;13.55;;
54679;SDS011;40578;53.178;5.846;2022-08-23T03:05:47;18.08;;;13.90;;
54679;SDS011;40578;53.178;5.846;2022-08-23T03:08:14;18.63;;;13.55;;
54679;SDS011;40578;53.178;5.846;2022-08-23T03:10:43;16.93;;;13.23;;
54679;SDS011;40578;53.178;5.846;2022-08-23T03:13:10;17.77;;;13.63;;
54679;SDS011;40578;53.178;5.846;2022-08-23T03:15:36;21.00;;;14.70;;
54679;SDS011;40578;53.178;5.846;2022-08-23T03:18:02;17.05;;;13.70;;
54679;SDS011;40578;53.178;5.846;2022-08-23T03:20:28;18.73;;;13.87;;
54679;SDS011;40578;53.178;5.846;2022-08-23T03:22:53;18.80;;;14.50;;
54679;SDS011;40578;53.178;5.846;2022-08-23T03:25:19;16.83;;;13.73;;
54679;SDS011;40578;53.178;5.846;2022-08-23T03:27:46;17.88;;;14.38;;
54679;SDS011;40578;53.178;5.846;2022-08-23T03:30:11;15.77;;;14.17;;
54679;SDS011;40578;53.178;5.846;2022-08-23T03:32:37;18.27;;;13.70;;
54679;SDS011;40578;53.178;5.846;2022-08-23T03:35:03;17.97;;;14.20;;
54679;SDS011;40578;53.178;5.846;2022-08-23T03:37:48;18.70;;;14.57;;
54679;SDS011;40578;53.178;5.846;2022-08-23T03:40:16;17.63;;;13.18;;
54679;SDS011;40578;53.178;5.846;2022-08-23T03:42:41;16.50;;;14.00;;
54679;SDS011;40578;53.178;5.846;2022-08-23T03:45:07;17.40;;;13.33;;
54679;SDS011;40578;53.178;5.846;2022-08-23T03:47:33;19.20;;;13.90;;
54679;SDS011;40578;53.178;5.846;2022-08-23T03:49:59;16.52;;;13.77;;
54679;SDS011;40578;53.178;5.846;2022-08-23T03:52:24;17.70;;;12.80;;
54679;SDS011;40578;53.178;5.846;2022-08-23T03:54:50;19.00;;;14.23;;
54679;SDS011;40578;53.178;5.846;2022-08-23T03:57:15;17.97;;;13.27;;
54679;SDS011;40578;53.178;5.846;2022-08-23T03:59:41;16.13;;;12.30;;
54679;SDS011;40578;53.178;5.846;2022-08-23T04:02:07;18.43;;;13.63;;
54679;SDS011;40578;53.178;5.846;2022-08-23T04:04:34;18.05;;;13.40;;
54679;SDS011;40578;53.178;5.846;2022-08-23T04:06:59;24.15;;;14.23;;
54679;SDS011;40578;53.178;5.846;2022-08-23T04:09:26;17.55;;;14.50;;
54679;SDS011;40578;53.178;5.846;2022-08-23T04:11:52;16.83;;;13.57;;
54679;SDS011;40578;53.178;5.846;2022-08-23T04:14:18;17.77;;;13.17;;
54679;SDS011;40578;53.178;5.846;2022-08-23T04:16:44;15.50;;;12.30;;
54679;SDS011;40578;53.178;5.846;2022-08-23T04:19:11;17.30;;;13.87;;
54679;SDS011;40578;53.178;5.846;2022-08-23T04:21:37;16.52;;;13.38;;
54679;SDS011;40578;53.178;5.846;2022-08-23T04:24:06;20.52;;;14.90;;
54679;SDS011;40578;53.178;5.846;2022-08-23T04:26:32;19.05;;;13.30;;
54679;SDS011;40578;53.178;5.846;2022-08-23T04:28:58;16.67;;;13.30;;
54679;SDS011;40578;53.178;5.846;2022-08-23T04:31:24;31.17;;;13.60;;
54679;SDS011;40578;53.178;5.846;2022-08-23T04:33:51;16.88;;;12.82;;
54679;SDS011;40578;53.178;5.846;2022-08-23T04:36:17;17.27;;;13.20;;
54679;SDS011;40578;53.178;5.846;2022-08-23T04:38:44;19.52;;;13.60;;
54679;SDS011;40578;53.178;5.846;2022-08-23T04:41:09;16.83;;;13.83;;
54679;SDS011;40578;53.178;5.846;2022-08-23T04:43:54;18.98;;;13.32;;
54679;SDS011;40578;53.178;5.846;2022-08-23T04:46:21;18.55;;;14.27;;
54679;SDS011;40578;53.178;5.846;2022-08-23T04:48:46;17.77;;;12.90;;
54679;SDS011;40578;53.178;5.846;2022-08-23T04:51:13;16.13;;;12.35;;
54679;SDS011;40578;53.178;5.846;2022-08-23T04:56:06;16.38;;;13.63;;
54679;SDS011;40578;53.178;5.846;2022-08-23T04:58:33;15.52;;;13.38;;
54679;SDS011;40578;53.178;5.846;2022-08-23T05:01:00;20.83;;;13.88;;
54679;SDS011;40578;53.178;5.846;2022-08-23T05:03:27;17.75;;;12.73;;
54679;SDS011;40578;53.178;5.846;2022-08-23T05:05:54;17.52;;;13.10;;
54679;SDS011;40578;53.178;5.846;2022-08-23T05:08:20;18.45;;;14.02;;
54679;SDS011;40578;53.178;5.846;2022-08-23T05:10:46;17.37;;;14.20;;
54679;SDS011;40578;53.178;5.846;2022-08-23T05:13:12;16.03;;;14.03;;
54679;SDS011;40578;53.178;5.846;2022-08-23T05:15:39;19.23;;;15.47;;
54679;SDS011;40578;53.178;5.846;2022-08-23T05:18:05;18.23;;;15.07;;
54679;SDS011;40578;53.178;5.846;2022-08-23T05:20:31;19.33;;;13.97;;
54679;SDS011;40578;53.178;5.846;2022-08-23T05:22:58;18.42;;;16.17;;
54679;SDS011;40578;53.178;5.846;2022-08-23T05:25:24;19.92;;;16.48;;
54679;SDS011;40578;53.178;5.846;2022-08-23T05:28:10;20.92;;;16.13;;
54679;SDS011;40578;53.178;5.846;2022-08-23T05:30:36;21.53;;;16.87;;
54679;SDS011;40578;53.178;5.846;2022-08-23T05:33:01;20.47;;;17.73;;
54679;SDS011;40578;53.178;5.846;2022-08-23T05:35:27;16.37;;;14.63;;
54679;SDS011;40578;53.178;5.846;2022-08-23T05:37:53;20.90;;;17.93;;
54679;SDS011;40578;53.178;5.846;2022-08-23T05:40:18;20.13;;;18.03;;
54679;SDS011;40578;53.178;5.846;2022-08-23T05:42:44;24.50;;;18.37;;
54679;SDS011;40578;53.178;5.846;2022-08-23T05:45:09;19.90;;;17.77;;
54679;SDS011;40578;53.178;5.846;2022-08-23T05:47:35;22.80;;;18.13;;
54679;SDS011;40578;53.178;5.846;2022-08-23T05:50:00;21.37;;;18.77;;
54679;SDS011;40578;53.178;5.846;2022-08-23T05:52:26;23.00;;;17.57;;
54679;SDS011;40578;53.178;5.846;2022-08-23T05:54:52;22.50;;;18.20;;
54679;SDS011;40578;53.178;5.846;2022-08-23T05:57:17;24.83;;;18.73;;
54679;SDS011;40578;53.178;5.846;2022-08-23T05:59:43;25.50;;;18.30;;
54679;SDS011;40578;53.178;5.846;2022-08-23T06:02:08;23.70;;;17.10;;
54679;SDS011;40578;53.178;5.846;2022-08-23T06:04:34;20.10;;;17.93;;
54679;SDS011;40578;53.178;5.846;2022-08-23T06:07:00;19.63;;;17.57;;
54679;SDS011;40578;53.178;5.846;2022-08-23T06:09:26;23.95;;;17.88;;
54679;SDS011;40578;53.178;5.846;2022-08-23T06:11:52;22.38;;;18.15;;
54679;SDS011;40578;53.178;5.846;2022-08-23T06:14:18;23.88;;;17.55;;
54679;SDS011;40578;53.178;5.846;2022-08-23T06:16:45;21.50;;;17.20;;
54679;SDS011;40578;53.178;5.846;2022-08-23T06:19:12;22.08;;;17.90;;
54679;SDS011;40578;53.178;5.846;2022-08-23T06:24:05;24.33;;;18.05;;
54679;SDS011;40578;53.178;5.846;2022-08-23T06:26:32;21.77;;;18.35;;
54679;SDS011;40578;53.178;5.846;2022-08-23T06:29:01;20.27;;;17.20;;
54679;SDS011;40578;53.178;5.846;2022-08-23T06:31:30;23.45;;;18.42;;
54679;SDS011;40578;53.178;5.846;2022-08-23T06:34:27;26.63;;;18.38;;
54679;SDS011;40578;53.178;5.846;2022-08-23T06:36:58;22.52;;;18.50;;
54679;SDS011;40578;53.178;5.846;2022-08-23T06:39:27;21.00;;;17.58;;
54679;SDS011;40578;53.178;5.846;2022-08-23T06:42:04;21.58;;;17.95;;
54679;SDS011;40578;53.178;5.846;2022-08-23T06:44:34;19.65;;;17.58;;
54679;SDS011;40578;53.178;5.846;2022-08-23T06:47:00;19.58;;;17.35;;
54679;SDS011;40578;53.178;5.846;2022-08-23T06:51:53;19.40;;;17.10;;
54679;SDS011;40578;53.178;5.846;2022-08-23T06:54:22;21.30;;;18.10;;
54679;SDS011;40578;53.178;5.846;2022-08-23T06:56:50;19.33;;;17.38;;
54679;SDS011;40578;53.178;5.846;2022-08-23T06:59:16;20.85;;;17.90;;
54679;SDS011;40578;53.178;5.846;2022-08-23T07:01:59;19.30;;;17.17;;
54679;SDS011;40578;53.178;5.846;2022-08-23T07:04:28;19.08;;;17.05;;
54679;SDS011;40578;53.178;5.846;2022-08-23T07:06:56;21.60;;;16.45;;
54679;SDS011;40578;53.178;5.846;2022-08-23T07:09:22;20.00;;;16.15;;
54679;SDS011;40578;53.178;5.846;2022-08-23T07:11:48;17.88;;;16.13;;
54679;SDS011;40578;53.178;5.846;2022-08-23T07:14:15;18.30;;;16.37;;
54679;SDS011;40578;53.178;5.846;2022-08-23T07:16:44;16.60;;;14.68;;
54679;SDS011;40578;53.178;5.846;2022-08-23T07:19:16;17.30;;;14.93;;
54679;SDS011;40578;53.178;5.846;2022-08-23T07:21:43;19.50;;;15.82;;
54679;SDS011;40578;53.178;5.846;2022-08-23T07:24:09;17.50;;;15.52;;
54679;SDS011;40578;53.178;5.846;2022-08-23T07:26:35;15.85;;;13.82;;
54679;SDS011;40578;53.178;5.846;2022-08-23T07:29:03;19.48;;;15.50;;
54679;SDS011;40578;53.178;5.846;2022-08-23T07:31:31;16.00;;;14.40;;
54679;SDS011;40578;53.178;5.846;2022-08-23T07:33:59;17.33;;;14.63;;
54679;SDS011;40578;53.178;5.846;2022-08-23T07:36:26;19.00;;;16.95;;
54679;SDS011;40578;53.178;5.846;2022-08-23T07:38:53;16.40;;;14.80;;
54679;SDS011;40578;53.178;5.846;2022-08-23T07:41:21;17.38;;;15.10;;
54679;SDS011;40578;53.178;5.846;2022-08-23T07:43:48;17.17;;;15.32;;
54679;SDS011;40578;53.178;5.846;2022-08-23T07:46:15;18.65;;;14.98;;
54679;SDS011;40578;53.178;5.846;2022-08-23T07:48:41;18.83;;;14.77;;
54679;SDS011;40578;53.178;5.846;2022-08-23T07:51:10;19.37;;;14.10;;
54679;SDS011;40578;53.178;5.846;2022-08-23T07:53:37;14.75;;;13.25;;
54679;SDS011;40578;53.178;5.846;2022-08-23T07:56:08;15.55;;;14.00;;
54679;SDS011;40578;53.178;5.846;2022-08-23T07:58:35;14.93;;;13.32;;
54679;SDS011;40578;53.178;5.846;2022-08-23T08:03:39;14.88;;;13.38;;
54679;SDS011;40578;53.178;5.846;2022-08-23T08:06:10;18.58;;;14.70;;
54679;SDS011;40578;53.178;5.846;2022-08-23T08:08:55;14.77;;;13.38;;
54679;SDS011;40578;53.178;5.846;2022-08-23T08:11:22;15.82;;;14.18;;
54679;SDS011;40578;53.178;5.846;2022-08-23T08:13:51;17.20;;;13.50;;
54679;SDS011;40578;53.178;5.846;2022-08-23T08:18:46;19.40;;;14.27;;
54679;SDS011;40578;53.178;5.846;2022-08-23T08:21:12;15.13;;;13.60;;
54679;SDS011;40578;53.178;5.846;2022-08-23T08:23:39;15.25;;;13.63;;
54679;SDS011;40578;53.178;5.846;2022-08-23T08:26:06;15.57;;;13.98;;
54679;SDS011;40578;53.178;5.846;2022-08-23T08:28:33;14.82;;;13.32;;
54679;SDS011;40578;53.178;5.846;2022-08-23T08:33:28;17.02;;;14.02;;
54679;SDS011;40578;53.178;5.846;2022-08-23T08:38:20;14.57;;;13.13;;
54679;SDS011;40578;53.178;5.846;2022-08-23T08:40:46;14.25;;;12.70;;
54679;SDS011;40578;53.178;5.846;2022-08-23T08:46:27;13.88;;;11.98;;
54679;SDS011;40578;53.178;5.846;2022-08-23T08:49:04;13.75;;;12.27;;
54679;SDS011;40578;53.178;5.846;2022-08-23T08:54:18;13.73;;;11.10;;
54679;SDS011;40578;53.178;5.846;2022-08-23T08:56:49;12.43;;;10.30;;
54679;SDS011;40578;53.178;5.846;2022-08-23T08:59:20;11.10;;;9.52;;
54679;SDS011;40578;53.178;5.846;2022-08-23T09:01:48;13.60;;;10.23;;
54679;SDS011;40578;53.178;5.846;2022-08-23T09:09:30;12.30;;;10.85;;
54679;SDS011;40578;53.178;5.846;2022-08-23T09:17:33;16.60;;;12.18;;
54679;SDS011;40578;53.178;5.846;2022-08-23T09:20:08;12.32;;;11.13;;
54679;SDS011;40578;53.178;5.846;2022-08-23T09:22:42;12.52;;;9.82;;
54679;SDS011;40578;53.178;5.846;2022-08-23T09:25:13;13.48;;;9.18;;
54679;SDS011;40578;53.178;5.846;2022-08-23T09:27:41;12.90;;;10.43;;
54679;SDS011;40578;53.178;5.846;2022-08-23T09:30:09;13.55;;;10.65;;
54679;SDS011;40578;53.178;5.846;2022-08-23T09:32:40;14.48;;;10.63;;
54679;SDS011;40578;53.178;5.846;2022-08-23T09:40:51;13.73;;;11.35;;
54679;SDS011;40578;53.178;5.846;2022-08-23T09:43:22;17.13;;;11.32;;
54679;SDS011;40578;53.178;5.846;2022-08-23T09:48:49;12.50;;;10.57;;
54679;SDS011;40578;53.178;5.846;2022-08-23T09:51:22;14.43;;;10.52;;
54679;SDS011;40578;53.178;5.846;2022-08-23T09:56:34;12.65;;;10.82;;
54679;SDS011;40578;53.178;5.846;2022-08-23T09:59:19;13.52;;;9.43;;
54679;SDS011;40578;53.178;5.846;2022-08-23T10:01:55;12.45;;;10.27;;
54679;SDS011;40578;53.178;5.846;2022-08-23T10:04:40;15.32;;;10.85;;
54679;SDS011;40578;53.178;5.846;2022-08-23T10:12:56;15.13;;;9.75;;
54679;SDS011;40578;53.178;5.846;2022-08-23T10:15:37;10.40;;;9.18;;
54679;SDS011;40578;53.178;5.846;2022-08-23T10:21:36;12.23;;;10.38;;
54679;SDS011;40578;53.178;5.846;2022-08-23T10:29:53;15.73;;;11.60;;
54679;SDS011;40578;53.178;5.846;2022-08-23T10:32:38;13.70;;;10.88;;
54679;SDS011;40578;53.178;5.846;2022-08-23T10:40:33;12.05;;;9.02;;
54679;SDS011;40578;53.178;5.846;2022-08-23T10:43:37;17.73;;;11.95;;
54679;SDS011;40578;53.178;5.846;2022-08-23T10:46:16;13.65;;;11.32;;
54679;SDS011;40578;53.178;5.846;2022-08-23T10:49:03;15.77;;;9.65;;
54679;SDS011;40578;53.178;5.846;2022-08-23T10:51:38;15.32;;;10.13;;
54679;SDS011;40578;53.178;5.846;2022-08-23T10:54:12;15.25;;;10.57;;
54679;SDS011;40578;53.178;5.846;2022-08-23T10:56:43;15.05;;;8.95;;
54679;SDS011;40578;53.178;5.846;2022-08-23T10:59:10;13.05;;;9.27;;
54679;SDS011;40578;53.178;5.846;2022-08-23T11:04:51;12.50;;;7.90;;
54679;SDS011;40578;53.178;5.846;2022-08-23T11:07:18;13.38;;;7.45;;
54679;SDS011;40578;53.178;5.846;2022-08-23T11:12:51;12.73;;;8.45;;
54679;SDS011;40578;53.178;5.846;2022-08-23T11:31:37;10.60;;;6.60;;
54679;SDS011;40578;53.178;5.846;2022-08-23T11:42:24;13.82;;;7.57;;
54679;SDS011;40578;53.178;5.846;2022-08-23T11:44:54;12.57;;;7.20;;
54679;SDS011;40578;53.178;5.846;2022-08-23T11:47:26;9.00;;;6.28;;
54679;SDS011;40578;53.178;5.846;2022-08-23T11:50:18;12.20;;;8.07;;
54679;SDS011;40578;53.178;5.846;2022-08-23T11:58:53;12.98;;;7.53;;
54679;SDS011;40578;53.178;5.846;2022-08-23T12:01:42;13.35;;;7.88;;
54679;SDS011;40578;53.178;5.846;2022-08-23T12:04:10;9.68;;;6.80;;
54679;SDS011;40578;53.178;5.846;2022-08-23T12:06:52;9.73;;;5.90;;
54679;SDS011;40578;53.178;5.846;2022-08-23T12:16:57;12.35;;;5.88;;
54679;SDS011;40578;53.178;5.846;2022-08-23T12:22:04;10.05;;;6.93;;
54679;SDS011;40578;53.178;5.846;2022-08-23T12:24:40;11.63;;;5.10;;
54679;SDS011;40578;53.178;5.846;2022-08-23T12:27:27;11.63;;;4.72;;
54679;SDS011;40578;53.178;5.846;2022-08-23T12:41:22;10.05;;;5.55;;
54679;SDS011;40578;53.178;5.846;2022-08-23T12:44:07;12.73;;;5.57;;
54679;SDS011;40578;53.178;5.846;2022-08-23T12:49:00;9.60;;;4.93;;
54679;SDS011;40578;53.178;5.846;2022-08-23T12:51:28;8.10;;;4.50;;
54679;SDS011;40578;53.178;5.846;2022-08-23T12:53:53;8.85;;;4.07;;
54679;SDS011;40578;53.178;5.846;2022-08-23T12:56:24;8.90;;;5.13;;
54679;SDS011;40578;53.178;5.846;2022-08-23T12:58:54;10.57;;;4.20;;
54679;SDS011;40578;53.178;5.846;2022-08-23T13:01:29;8.82;;;3.67;;
54679;SDS011;40578;53.178;5.846;2022-08-23T13:04:08;7.80;;;4.45;;
54679;SDS011;40578;53.178;5.846;2022-08-23T13:06:41;10.70;;;4.88;;
54679;SDS011;40578;53.178;5.846;2022-08-23T13:09:32;9.02;;;4.40;;
54679;SDS011;40578;53.178;5.846;2022-08-23T13:12:01;7.03;;;3.40;;
54679;SDS011;40578;53.178;5.846;2022-08-23T13:16:56;8.73;;;3.38;;
54679;SDS011;40578;53.178;5.846;2022-08-23T13:19:36;10.25;;;3.05;;
54679;SDS011;40578;53.178;5.846;2022-08-23T13:27:26;9.50;;;3.55;;
54679;SDS011;40578;53.178;5.846;2022-08-23T13:30:02;7.35;;;3.78;;
54679;SDS011;40578;53.178;5.846;2022-08-23T13:40:32;10.90;;;4.40;;
54679;SDS011;40578;53.178;5.846;2022-08-23T13:45:59;9.40;;;4.15;;
54679;SDS011;40578;53.178;5.846;2022-08-23T13:48:42;10.13;;;4.93;;
54679;SDS011;40578;53.178;5.846;2022-08-23T13:51:18;8.48;;;4.40;;
54679;SDS011;40578;53.178;5.846;2022-08-23T13:53:50;10.82;;;5.70;;
54679;SDS011;40578;53.178;5.846;2022-08-23T13:56:18;8.13;;;3.80;;
54679;SDS011;40578;53.178;5.846;2022-08-23T13:58:51;7.50;;;4.20;;
54679;SDS011;40578;53.178;5.846;2022-08-23T14:01:28;8.68;;;4.30;;
54679;SDS011;40578;53.178;5.846;2022-08-23T14:03:55;7.43;;;4.57;;
54679;SDS011;40578;53.178;5.846;2022-08-23T14:06:21;8.48;;;4.35;;
54679;SDS011;40578;53.178;5.846;2022-08-23T14:08:47;8.25;;;3.90;;
54679;SDS011;40578;53.178;5.846;2022-08-23T14:11:14;6.90;;;3.45;;
54679;SDS011;40578;53.178;5.846;2022-08-23T14:13:40;11.93;;;3.80;;
54679;SDS011;40578;53.178;5.846;2022-08-23T14:16:09;9.55;;;3.72;;
54679;SDS011;40578;53.178;5.846;2022-08-23T14:18:44;8.30;;;4.40;;
54679;SDS011;40578;53.178;5.846;2022-08-23T14:21:10;10.45;;;4.78;;
54679;SDS011;40578;53.178;5.846;2022-08-23T14:23:36;11.52;;;4.47;;
54679;SDS011;40578;53.178;5.846;2022-08-23T14:26:01;8.05;;;3.67;;
54679;SDS011;40578;53.178;5.846;2022-08-23T14:28:27;8.48;;;4.93;;
54679;SDS011;40578;53.178;5.846;2022-08-23T14:30:54;7.93;;;4.53;;
54679;SDS011;40578;53.178;5.846;2022-08-23T14:33:20;10.70;;;5.22;;
54679;SDS011;40578;53.178;5.846;2022-08-23T14:35:46;10.90;;;5.65;;
54679;SDS011;40578;53.178;5.846;2022-08-23T14:38:13;7.97;;;4.57;;
54679;SDS011;40578;53.178;5.846;2022-08-23T14:40:48;9.63;;;4.18;;
54679;SDS011;40578;53.178;5.846;2022-08-23T14:43:19;8.32;;;4.90;;
54679;SDS011;40578;53.178;5.846;2022-08-23T14:45:45;9.60;;;4.38;;
54679;SDS011;40578;53.178;5.846;2022-08-23T14:48:11;7.05;;;3.72;;
54679;SDS011;40578;53.178;5.846;2022-08-23T14:50:37;7.47;;;4.70;;
54679;SDS011;40578;53.178;5.846;2022-08-23T14:53:04;8.93;;;4.18;;
54679;SDS011;40578;53.178;5.846;2022-08-23T14:55:31;10.25;;;3.80;;
54679;SDS011;40578;53.178;5.846;2022-08-23T14:57:57;9.05;;;5.05;;
54679;SDS011;40578;53.178;5.846;2022-08-23T15:00:24;13.65;;;4.57;;
54679;SDS011;40578;53.178;5.846;2022-08-23T15:02:50;8.93;;;3.65;;
54679;SDS011;40578;53.178;5.846;2022-08-23T15:07:43;11.02;;;3.92;;
54679;SDS011;40578;53.178;5.846;2022-08-23T15:10:10;8.63;;;4.53;;
54679;SDS011;40578;53.178;5.846;2022-08-23T15:12:40;10.57;;;4.18;;
54679;SDS011;40578;53.178;5.846;2022-08-23T15:15:07;8.80;;;4.60;;
54679;SDS011;40578;53.178;5.846;2022-08-23T15:17:36;9.27;;;4.15;;
54679;SDS011;40578;53.178;5.846;2022-08-23T15:20:07;9.73;;;4.13;;
54679;SDS011;40578;53.178;5.846;2022-08-23T15:22:33;9.60;;;3.85;;
54679;SDS011;40578;53.178;5.846;2022-08-23T15:24:59;8.15;;;3.90;;
54679;SDS011;40578;53.178;5.846;2022-08-23T15:27:24;6.35;;;3.92;;
54679;SDS011;40578;53.178;5.846;2022-08-23T15:29:50;10.07;;;4.20;;
54679;SDS011;40578;53.178;5.846;2022-08-23T15:32:15;9.13;;;3.95;;
54679;SDS011;40578;53.178;5.846;2022-08-23T15:34:41;8.13;;;3.97;;
54679;SDS011;40578;53.178;5.846;2022-08-23T15:37:07;10.77;;;4.22;;
54679;SDS011;40578;53.178;5.846;2022-08-23T15:39:32;8.98;;;3.60;;
54679;SDS011;40578;53.178;5.846;2022-08-23T15:41:58;10.73;;;8.10;;
54679;SDS011;40578;53.178;5.846;2022-08-23T15:44:23;15.18;;;7.80;;
54679;SDS011;40578;53.178;5.846;2022-08-23T15:46:49;11.10;;;7.10;;
54679;SDS011;40578;53.178;5.846;2022-08-23T15:49:15;9.98;;;7.07;;
54679;SDS011;40578;53.178;5.846;2022-08-23T15:51:42;13.20;;;7.90;;
54679;SDS011;40578;53.178;5.846;2022-08-23T15:54:08;11.27;;;7.40;;
54679;SDS011;40578;53.178;5.846;2022-08-23T15:56:42;12.38;;;8.15;;
54679;SDS011;40578;53.178;5.846;2022-08-23T15:59:12;12.00;;;8.20;;
54679;SDS011;40578;53.178;5.846;2022-08-23T16:01:39;11.50;;;7.10;;
54679;SDS011;40578;53.178;5.846;2022-08-23T16:04:04;11.93;;;7.30;;
54679;SDS011;40578;53.178;5.846;2022-08-23T16:06:31;12.52;;;7.88;;
54679;SDS011;40578;53.178;5.846;2022-08-23T16:08:58;11.38;;;7.72;;
54679;SDS011;40578;53.178;5.846;2022-08-23T16:11:24;12.10;;;7.05;;
54679;SDS011;40578;53.178;5.846;2022-08-23T16:13:50;11.85;;;7.22;;
54679;SDS011;40578;53.178;5.846;2022-08-23T16:18:46;10.85;;;6.97;;
54679;SDS011;40578;53.178;5.846;2022-08-23T16:21:12;10.27;;;6.90;;
54679;SDS011;40578;53.178;5.846;2022-08-23T16:23:38;15.02;;;7.32;;
54679;SDS011;40578;53.178;5.846;2022-08-23T16:26:11;10.07;;;6.80;;
54679;SDS011;40578;53.178;5.846;2022-08-23T16:28:40;12.23;;;7.65;;
54679;SDS011;40578;53.178;5.846;2022-08-23T16:31:08;12.30;;;6.80;;
54679;SDS011;40578;53.178;5.846;2022-08-23T16:33:34;12.20;;;7.63;;
54679;SDS011;40578;53.178;5.846;2022-08-23T16:35:59;12.32;;;8.00;;
54679;SDS011;40578;53.178;5.846;2022-08-23T16:38:25;12.95;;;7.97;;
54679;SDS011;40578;53.178;5.846;2022-08-23T16:40:50;13.48;;;9.02;;
54679;SDS011;40578;53.178;5.846;2022-08-23T16:43:16;10.70;;;8.50;;
54679;SDS011;40578;53.178;5.846;2022-08-23T16:45:41;13.70;;;8.33;;
54679;SDS011;40578;53.178;5.846;2022-08-23T16:48:07;11.93;;;7.22;;
54679;SDS011;40578;53.178;5.846;2022-08-23T16:50:33;12.65;;;7.07;;
54679;SDS011;40578;53.178;5.846;2022-08-23T16:52:59;11.20;;;6.85;;
54679;SDS011;40578;53.178;5.846;2022-08-23T16:55:24;9.13;;;6.50;;
54679;SDS011;40578;53.178;5.846;2022-08-23T16:57:50;10.38;;;6.68;;
54679;SDS011;40578;53.178;5.846;2022-08-23T17:00:16;10.45;;;6.68;;
54679;SDS011;40578;53.178;5.846;2022-08-23T17:02:42;9.32;;;6.97;;
54679;SDS011;40578;53.178;5.846;2022-08-23T17:05:10;9.40;;;7.05;;
54679;SDS011;40578;53.178;5.846;2022-08-23T17:07:38;10.73;;;6.82;;
54679;SDS011;40578;53.178;5.846;2022-08-23T17:10:04;11.10;;;6.93;;
54679;SDS011;40578;53.178;5.846;2022-08-23T17:12:33;10.40;;;7.53;;
54679;SDS011;40578;53.178;5.846;2022-08-23T17:15:02;15.80;;;8.73;;
54679;SDS011;40578;53.178;5.846;2022-08-23T17:17:28;11.75;;;7.13;;